Time;durP1;ratioP1;P1;durP2;ratioP2;P2;SDS_P1;SDS_P2;PMS_P1;PMS_P2;Temp;Humidity;BMP_temperature;BMP_pressure;BME280_temperature;BME280_humidity;BME280_pressure;Samples;Min_cycle;Max_cycle;Signal;HPM_P1;HPM_P2
2022/03/13 00:00:15;;;;;;;17.52;10.52;;;-0.90;99.90;;;;;;5006030;28;20053;-68
2022/03/13 00:02:45;;;;;;;18.60;11.83;;;-0.90;99.90;;;;;;5007899;28;20081;-68
2022/03/13 00:05:16;;;;;;;24.73;11.52;;;-0.90;99.90;;;;;;4999260;28;20048;-68
2022/03/13 00:07:44;;;;;;;18.88;10.85;;;-0.90;99.90;;;;;;5012350;28;20041;-69
2022/03/13 00:10:17;;;;;;;18.67;12.32;;;-1.00;99.90;;;;;;5025511;28;20049;-65
2022/03/13 00:12:48;;;;;;;20.48;12.60;;;-1.00;99.90;;;;;;5009947;28;20078;-65
2022/03/13 00:15:23;;;;;;;16.15;10.50;;;-1.00;99.90;;;;;;5003643;28;20388;-66
2022/03/13 00:17:50;;;;;;;15.48;9.32;;;-1.00;99.90;;;;;;5014311;28;20065;-71
2022/03/13 00:20:17;;;;;;;17.00;9.45;;;-1.10;99.90;;;;;;5006738;28;20152;-66
2022/03/13 00:22:44;;;;;;;19.92;10.25;;;-1.10;99.90;;;;;;5002773;28;20061;-66
2022/03/13 00:25:11;;;;;;;19.25;9.70;;;-1.10;99.90;;;;;;5017738;28;20069;-66
2022/03/13 00:27:39;;;;;;;20.23;9.93;;;-1.10;99.90;;;;;;5012373;28;20082;-65
2022/03/13 00:30:07;;;;;;;17.02;8.88;;;-1.10;99.90;;;;;;5010269;28;20049;-65
2022/03/13 00:32:34;;;;;;;16.35;10.70;;;-1.20;99.90;;;;;;5007863;28;20081;-65
2022/03/13 00:35:01;;;;;;;16.48;10.45;;;-1.20;99.90;;;;;;5008717;28;20056;-65
2022/03/13 00:37:28;;;;;;;16.60;9.77;;;-1.20;99.90;;;;;;5004640;28;20046;-64
2022/03/13 00:39:56;;;;;;;16.63;9.88;;;-1.20;99.90;;;;;;5003238;28;20052;-66
2022/03/13 00:42:24;;;;;;;21.98;10.60;;;-1.30;99.90;;;;;;5010701;28;20701;-65
2022/03/13 00:44:52;;;;;;;11.93;8.60;;;-1.30;99.90;;;;;;5006698;28;20057;-65
2022/03/13 00:47:20;;;;;;;18.40;10.10;;;-1.30;99.90;;;;;;5006299;28;20117;-65
2022/03/13 00:49:48;;;;;;;21.58;11.13;;;-1.30;99.90;;;;;;5002560;28;20100;-68
2022/03/13 00:52:17;;;;;;;14.93;9.82;;;-1.40;99.90;;;;;;5009190;28;20054;-65
2022/03/13 00:54:44;;;;;;;13.20;9.75;;;-1.40;99.90;;;;;;5007572;28;20196;-66
2022/03/13 00:57:11;;;;;;;15.02;9.55;;;-1.40;99.90;;;;;;5010654;28;20784;-66
2022/03/13 00:59:38;;;;;;;18.08;10.18;;;-1.50;99.90;;;;;;5010915;28;20851;-71
2022/03/13 01:02:05;;;;;;;17.70;9.40;;;-1.50;99.90;;;;;;5025899;28;20054;-65
2022/03/13 01:04:34;;;;;;;15.57;8.82;;;-1.40;99.90;;;;;;5012938;28;20065;-66
2022/03/13 01:07:03;;;;;;;17.38;9.52;;;-1.40;99.90;;;;;;5007584;28;20096;-64
2022/03/13 01:09:30;;;;;;;15.23;11.82;;;-1.40;99.90;;;;;;5009604;28;20046;-65
2022/03/13 01:11:57;;;;;;;11.88;8.10;;;-1.40;99.90;;;;;;5009399;28;20077;-66
2022/03/13 01:14:24;;;;;;;15.25;8.68;;;-1.40;99.90;;;;;;5009167;28;20045;-66
2022/03/13 01:17:03;;;;;;;14.20;8.35;;;-1.40;99.90;;;;;;5016089;28;20085;-72
2022/03/13 01:19:30;;;;;;;13.75;8.88;;;-1.50;99.90;;;;;;5003985;28;20080;-65
2022/03/13 01:21:58;;;;;;;16.58;10.25;;;-1.50;99.90;;;;;;5008792;28;20137;-65
2022/03/13 01:24:30;;;;;;;12.02;7.68;;;-1.50;99.90;;;;;;4996997;28;20530;-66
2022/03/13 01:27:02;;;;;;;17.27;9.73;;;-1.60;99.90;;;;;;5007559;28;20077;-65
2022/03/13 01:29:30;;;;;;;18.60;10.27;;;-1.60;99.90;;;;;;5007573;28;20357;-67
2022/03/13 01:31:58;;;;;;;15.95;8.90;;;-1.70;99.90;;;;;;4989921;28;20046;-71
2022/03/13 01:34:41;;;;;;;19.50;11.35;;;-1.70;99.90;;;;;;5007638;28;20176;-68
2022/03/13 01:37:19;;;;;;;15.00;9.48;;;-1.80;99.90;;;;;;5005016;28;20041;-67
2022/03/13 01:39:48;;;;;;;20.15;10.77;;;-1.90;99.90;;;;;;4992506;28;20057;-65
2022/03/13 01:42:15;;;;;;;16.10;10.23;;;-1.90;99.90;;;;;;5003488;28;20177;-66
2022/03/13 01:44:42;;;;;;;18.05;10.05;;;-2.00;99.90;;;;;;4989088;28;20500;-69
2022/03/13 01:47:09;;;;;;;17.48;11.18;;;-2.00;99.90;;;;;;5008524;28;20057;-67
2022/03/13 01:49:37;;;;;;;16.15;9.48;;;-2.00;99.90;;;;;;5007572;28;20503;-69
2022/03/13 01:52:04;;;;;;;19.40;11.57;;;-2.10;99.90;;;;;;5008297;28;20070;-70
2022/03/13 01:54:31;;;;;;;14.60;10.85;;;-2.10;99.90;;;;;;5005760;28;20179;-68
2022/03/13 01:57:00;;;;;;;20.73;11.63;;;-2.10;99.90;;;;;;5005359;28;20073;-64
2022/03/13 01:59:31;;;;;;;22.80;11.95;;;-2.20;99.90;;;;;;5006811;28;20080;-64
2022/03/13 02:01:58;;;;;;;17.80;11.20;;;-2.20;99.90;;;;;;5008724;28;20050;-68
2022/03/13 02:04:27;;;;;;;16.40;10.82;;;-2.20;99.90;;;;;;5012152;28;20057;-65
2022/03/13 02:06:58;;;;;;;19.30;12.55;;;-2.30;99.90;;;;;;5004083;28;20038;-64
2022/03/13 02:09:26;;;;;;;21.55;11.75;;;-2.30;99.90;;;;;;5009678;28;20057;-68
2022/03/13 02:11:56;;;;;;;;;;;-2.40;99.90;;;;;;5005316;28;20050;-74
2022/03/13 02:14:23;;;;;;;19.35;10.77;;;-2.40;99.90;;;;;;5008077;28;19925;-65
2022/03/13 02:16:51;;;;;;;16.08;11.75;;;-2.40;99.90;;;;;;5005103;28;20127;-66
2022/03/13 02:19:19;;;;;;;22.55;12.60;;;-2.40;99.90;;;;;;5013025;28;20061;-74
2022/03/13 02:21:52;;;;;;;21.15;11.90;;;-2.40;99.90;;;;;;5009085;28;20278;-65
2022/03/13 02:24:24;;;;;;;27.95;14.02;;;-2.40;99.90;;;;;;5008665;28;20042;-64
2022/03/13 02:27:00;;;;;;;18.80;13.80;;;-2.40;99.90;;;;;;5007712;28;20855;-64
2022/03/13 02:29:27;;;;;;;26.67;12.68;;;-2.50;99.90;;;;;;5007806;28;20177;-66
2022/03/13 02:31:55;;;;;;;18.23;11.48;;;-2.50;99.90;;;;;;5007292;28;20076;-66
2022/03/13 02:34:22;;;;;;;19.95;12.43;;;-2.50;99.90;;;;;;5006805;28;20184;-65
2022/03/13 02:36:49;;;;;;;21.63;11.32;;;-2.60;99.90;;;;;;5005951;28;20133;-65
2022/03/13 02:39:17;;;;;;;22.63;10.57;;;-2.60;99.90;;;;;;5002794;28;20138;-68
2022/03/13 02:41:45;;;;;;;20.65;12.57;;;-2.60;99.90;;;;;;5008324;28;20478;-67
2022/03/13 02:44:15;;;;;;;28.23;12.57;;;-2.60;99.90;;;;;;5007847;28;20054;-69
2022/03/13 02:46:48;;;;;;;26.95;12.35;;;-2.70;99.90;;;;;;5006464;28;20061;-65
2022/03/13 02:49:17;;;;;;;22.58;13.45;;;-2.70;99.90;;;;;;5007155;28;20061;-65
2022/03/13 02:51:46;;;;;;;17.02;11.55;;;-2.70;99.90;;;;;;5007405;28;20049;-70
2022/03/13 02:54:15;;;;;;;19.42;12.35;;;-2.70;99.90;;;;;;5007047;28;20487;-64
2022/03/13 02:56:42;;;;;;;20.92;11.68;;;-2.80;99.90;;;;;;5006502;28;20115;-65
2022/03/13 02:59:09;;;;;;;22.30;11.38;;;-2.80;99.90;;;;;;5007514;28;20123;-64
2022/03/13 03:01:40;;;;;;;18.80;11.65;;;-2.80;99.90;;;;;;5004065;28;20061;-65
2022/03/13 03:04:08;;;;;;;18.23;10.23;;;-2.80;99.90;;;;;;5006973;28;20045;-65
2022/03/13 03:06:39;;;;;;;17.48;10.48;;;-2.80;99.90;;;;;;4994462;28;20104;-66
2022/03/13 03:09:06;;;;;;;21.65;11.13;;;-2.90;99.90;;;;;;5003710;28;20105;-71
2022/03/13 03:11:34;;;;;;;24.30;12.45;;;-2.90;99.90;;;;;;5006943;28;20129;-65
2022/03/13 03:14:04;;;;;;;18.85;11.77;;;-2.90;99.90;;;;;;5007003;28;20311;-67
2022/03/13 03:16:31;;;;;;;20.80;11.30;;;-2.90;99.90;;;;;;5008251;28;20054;-69
2022/03/13 03:18:59;;;;;;;20.83;11.43;;;-2.90;99.90;;;;;;5005669;28;20042;-64
2022/03/13 03:21:27;;;;;;;19.17;10.30;;;-3.00;99.90;;;;;;5002479;28;20054;-64
2022/03/13 03:23:54;;;;;;;14.48;9.02;;;-3.00;99.90;;;;;;5000011;28;20085;-66
2022/03/13 03:26:24;;;;;;;16.80;11.80;;;-3.00;99.90;;;;;;5013995;28;20053;-69
2022/03/13 03:28:51;;;;;;;26.42;11.82;;;-3.00;99.90;;;;;;5009101;28;20119;-65
2022/03/13 03:31:18;;;;;;;19.48;11.18;;;-3.10;99.90;;;;;;5007867;28;20081;-64
2022/03/13 03:33:45;;;;;;;14.50;10.10;;;-3.10;99.90;;;;;;5006738;28;20039;-64
2022/03/13 03:36:16;;;;;;;19.77;10.00;;;-3.20;99.90;;;;;;5011904;28;20093;-64
2022/03/13 03:38:43;;;;;;;16.75;10.52;;;-3.20;99.90;;;;;;5008406;28;20125;-67
2022/03/13 03:41:10;;;;;;;15.02;10.05;;;-3.20;99.90;;;;;;5007429;28;20440;-64
2022/03/13 03:43:37;;;;;;;16.42;9.23;;;-3.20;99.90;;;;;;5003722;28;20053;-67
2022/03/13 03:46:04;;;;;;;23.90;10.48;;;-3.20;99.90;;;;;;5006697;28;20144;-68
2022/03/13 03:48:31;;;;;;;23.13;10.27;;;-3.30;99.90;;;;;;5006443;28;20073;-68
2022/03/13 03:50:58;;;;;;;14.23;9.88;;;-3.30;99.90;;;;;;5005123;28;20132;-65
2022/03/13 03:53:25;;;;;;;14.98;9.38;;;-3.30;99.90;;;;;;5007208;28;20046;-65
2022/03/13 03:55:52;;;;;;;18.50;10.45;;;-3.40;99.90;;;;;;5003884;28;20065;-64
2022/03/13 03:58:21;;;;;;;27.48;12.75;;;-3.40;99.90;;;;;;5006785;28;20085;-65
2022/03/13 04:00:48;;;;;;;18.77;11.13;;;-3.40;99.90;;;;;;4998931;28;20042;-67
2022/03/13 04:03:16;;;;;;;21.83;11.50;;;-3.40;99.90;;;;;;5007028;28;20058;-66
2022/03/13 04:05:43;;;;;;;18.20;9.20;;;-3.40;99.90;;;;;;5006791;28;20060;-66
2022/03/13 04:08:10;;;;;;;15.85;9.70;;;-3.40;99.90;;;;;;5006696;28;20120;-64
2022/03/13 04:10:37;;;;;;;12.57;9.43;;;-3.50;99.90;;;;;;5007084;28;20104;-69
2022/03/13 04:13:04;;;;;;;18.17;9.52;;;-3.50;99.90;;;;;;5015616;28;20041;-65
2022/03/13 04:15:31;;;;;;;15.18;8.85;;;-3.50;99.90;;;;;;5010057;28;20050;-65
2022/03/13 04:17:58;;;;;;;14.10;9.25;;;-3.50;99.90;;;;;;5007042;28;20050;-70
2022/03/13 04:20:25;;;;;;;21.05;10.40;;;-3.50;99.90;;;;;;5000286;28;20054;-64
2022/03/13 04:22:52;;;;;;;18.67;11.45;;;-3.60;99.90;;;;;;5005810;28;20062;-65
2022/03/13 04:25:20;;;;;;;12.77;9.25;;;-3.60;99.90;;;;;;5006934;28;20090;-66
2022/03/13 04:27:47;;;;;;;16.48;9.07;;;-3.60;99.90;;;;;;5007295;28;20093;-65
2022/03/13 04:30:14;;;;;;;17.70;9.07;;;-3.60;99.90;;;;;;5007097;28;20080;-64
2022/03/13 04:32:41;;;;;;;16.80;10.02;;;-3.70;99.90;;;;;;5005000;28;20761;-65
2022/03/13 04:35:09;;;;;;;16.92;9.27;;;-3.70;99.90;;;;;;5002338;28;20049;-66
2022/03/13 04:37:36;;;;;;;19.17;8.55;;;-3.70;99.90;;;;;;5006627;28;20168;-67
2022/03/13 04:40:05;;;;;;;23.98;10.40;;;-3.70;99.90;;;;;;5003137;28;20046;-68
2022/03/13 04:42:32;;;;;;;14.52;8.35;;;-3.70;99.90;;;;;;5011993;28;20053;-64
2022/03/13 04:44:59;;;;;;;15.38;8.85;;;-3.70;99.90;;;;;;5011037;28;20080;-68
2022/03/13 04:47:31;;;;;;;12.97;9.20;;;-3.60;99.90;;;;;;5006436;28;20046;-69
2022/03/13 04:49:59;;;;;;;18.90;10.18;;;-3.70;99.90;;;;;;5006794;28;20710;-64
2022/03/13 04:52:27;;;;;;;11.50;8.90;;;-3.70;99.90;;;;;;5007084;28;20050;-71
2022/03/13 04:54:54;;;;;;;14.43;9.70;;;-3.70;99.90;;;;;;5000541;28;20111;-66
2022/03/13 04:57:21;;;;;;;15.52;9.18;;;-3.60;99.90;;;;;;5006409;28;20042;-64
2022/03/13 04:59:48;;;;;;;16.58;9.73;;;-3.60;99.90;;;;;;5021664;28;20078;-65
2022/03/13 05:02:14;;;;;;;14.52;9.80;;;-3.60;99.90;;;;;;5010647;28;20057;-75
2022/03/13 05:04:44;;;;;;;13.25;9.02;;;-3.60;99.90;;;;;;5008450;28;20109;-66
2022/03/13 05:07:11;;;;;;;19.23;10.50;;;-3.60;99.90;;;;;;5008422;28;20072;-64
2022/03/13 05:09:38;;;;;;;15.93;10.53;;;-3.60;99.90;;;;;;5001516;28;20112;-67
2022/03/13 05:12:07;;;;;;;16.33;10.73;;;-3.60;99.90;;;;;;5009638;28;20060;-64
2022/03/13 05:14:34;;;;;;;20.08;10.73;;;-3.60;99.90;;;;;;5009706;28;20061;-64
2022/03/13 05:17:01;;;;;;;17.17;11.32;;;-3.50;99.90;;;;;;5007877;28;20054;-66
2022/03/13 05:19:28;;;;;;;16.45;12.02;;;-3.40;99.90;;;;;;5009432;28;20066;-68
2022/03/13 05:21:55;;;;;;;13.93;10.70;;;-3.40;99.90;;;;;;5011725;28;20077;-65
2022/03/13 05:24:22;;;;;;;19.63;11.75;;;-3.30;99.90;;;;;;5011227;28;20049;-66
2022/03/13 05:26:49;;;;;;;16.45;12.68;;;-3.30;99.90;;;;;;5019173;28;20399;-65
2022/03/13 05:29:16;;;;;;;17.77;14.20;;;-3.30;99.90;;;;;;5003579;28;20050;-65
2022/03/13 05:31:43;;;;;;;19.30;14.45;;;-3.30;99.90;;;;;;5002992;28;20074;-68
2022/03/13 05:34:13;;;;;;;20.95;14.63;;;-3.30;99.90;;;;;;5010464;28;20816;-71
2022/03/13 05:36:40;;;;;;;23.83;14.70;;;-3.40;99.90;;;;;;5007779;28;20046;-65
2022/03/13 05:39:09;;;;;;;22.15;15.35;;;-3.40;99.90;;;;;;5009124;28;20106;-68
2022/03/13 05:41:39;;;;;;;23.55;14.90;;;-3.30;99.90;;;;;;5009762;28;20077;-64
2022/03/13 05:44:09;;;;;;;27.17;16.02;;;-3.30;99.90;;;;;;5009242;28;20078;-64
2022/03/13 05:46:36;;;;;;;23.20;14.10;;;-3.30;99.90;;;;;;5009311;28;20049;-68
2022/03/13 05:49:04;;;;;;;25.98;14.23;;;-3.30;99.90;;;;;;5007633;28;20053;-66
2022/03/13 05:51:40;;;;;;;20.83;15.57;;;-3.30;99.90;;;;;;5009379;28;20057;-64
2022/03/13 05:54:07;;;;;;;18.58;12.00;;;-3.30;99.90;;;;;;5008911;28;20080;-65
2022/03/13 05:56:36;;;;;;;23.27;13.75;;;-3.30;99.90;;;;;;5009581;28;20060;-65
2022/03/13 05:59:03;;;;;;;17.95;13.18;;;-3.30;99.90;;;;;;5006764;28;20057;-69
2022/03/13 06:01:30;;;;;;;19.55;11.15;;;-3.20;99.90;;;;;;4992893;28;20157;-64
2022/03/13 06:03:59;;;;;;;18.73;12.27;;;-3.20;99.90;;;;;;5008723;28;20061;-64
2022/03/13 06:06:26;;;;;;;23.13;13.57;;;-3.20;99.90;;;;;;5008035;28;20070;-69
2022/03/13 06:08:53;;;;;;;26.00;16.67;;;-3.10;99.90;;;;;;5003261;28;20098;-63
2022/03/13 06:11:20;;;;;;;26.20;17.73;;;-3.10;99.90;;;;;;5003414;28;20133;-64
2022/03/13 06:13:47;;;;;;;23.83;17.10;;;-3.10;99.90;;;;;;4995038;28;20116;-66
2022/03/13 06:16:15;;;;;;;31.63;14.73;;;-3.00;99.90;;;;;;4989847;28;20062;-64
2022/03/13 06:18:43;;;;;;;19.73;13.20;;;-2.90;99.90;;;;;;5006671;28;20046;-64
2022/03/13 06:21:10;;;;;;;24.55;12.50;;;-2.90;99.90;;;;;;5008406;28;20104;-64
2022/03/13 06:23:37;;;;;;;19.52;10.70;;;-2.70;99.90;;;;;;5008200;28;20085;-65
2022/03/13 06:26:05;;;;;;;21.75;10.90;;;-2.70;99.90;;;;;;5006833;28;20042;-65
2022/03/13 06:28:34;;;;;;;13.68;9.88;;;-2.60;99.90;;;;;;5007731;28;20457;-66
2022/03/13 06:31:01;;;;;;;14.20;9.65;;;-2.50;99.90;;;;;;5007435;28;20050;-64
2022/03/13 06:33:30;;;;;;;15.27;10.43;;;-2.40;99.90;;;;;;5008536;28;20120;-64
2022/03/13 06:35:57;;;;;;;15.52;8.63;;;-2.30;99.90;;;;;;5004437;28;20493;-65
2022/03/13 06:38:24;;;;;;;14.88;9.63;;;-2.30;99.90;;;;;;5007929;28;20046;-67
2022/03/13 06:40:51;;;;;;;18.05;9.90;;;-2.20;99.90;;;;;;5000859;28;20123;-64
2022/03/13 06:43:18;;;;;;;12.02;9.02;;;-2.10;99.90;;;;;;5008351;28;20057;-65
2022/03/13 06:45:46;;;;;;;12.65;8.90;;;-2.00;99.90;;;;;;5005759;28;20140;-64
2022/03/13 06:48:15;;;;;;;14.75;8.75;;;-1.80;99.90;;;;;;5000991;28;20112;-63
2022/03/13 06:50:42;;;;;;;12.30;7.50;;;-1.80;99.90;;;;;;5005989;28;20404;-65
2022/03/13 06:53:10;;;;;;;9.27;6.38;;;-1.60;99.90;;;;;;5005691;28;20057;-65
2022/03/13 06:55:37;;;;;;;11.30;7.13;;;-1.60;99.90;;;;;;4993092;28;20049;-73
2022/03/13 06:58:04;;;;;;;11.45;7.43;;;-1.50;99.90;;;;;;4987763;28;20080;-66
2022/03/13 07:00:31;;;;;;;19.10;8.27;;;-1.30;99.90;;;;;;4992205;28;20104;-69
2022/03/13 07:02:58;;;;;;;9.10;5.03;;;-1.20;99.90;;;;;;5001323;28;20053;-71
2022/03/13 07:05:25;;;;;;;10.50;5.47;;;-1.10;99.90;;;;;;4994927;28;20103;-67
2022/03/13 07:07:54;;;;;;;8.68;4.53;;;-1.00;99.90;;;;;;4996743;28;20092;-63
2022/03/13 07:10:22;;;;;;;11.15;4.78;;;-0.90;99.90;;;;;;5002392;28;20443;-63
2022/03/13 07:12:49;;;;;;;10.73;4.25;;;-0.80;99.90;;;;;;4994591;28;20128;-65
2022/03/13 07:15:18;;;;;;;8.18;3.75;;;-0.70;99.90;;;;;;4996304;28;20050;-67
2022/03/13 07:17:45;;;;;;;6.25;4.22;;;-0.50;99.90;;;;;;4997053;28;20053;-68
2022/03/13 07:20:13;;;;;;;5.60;3.08;;;-0.40;99.90;;;;;;4998387;28;20611;-64
2022/03/13 07:22:42;;;;;;;4.25;2.25;;;-0.30;99.90;;;;;;4995491;28;20069;-69
2022/03/13 07:25:09;;;;;;;7.95;2.85;;;-0.10;99.90;;;;;;4994964;28;20086;-71
2022/03/13 07:27:37;;;;;;;4.00;2.55;;;0.10;99.90;;;;;;4988683;28;20133;-66
2022/03/13 07:30:05;;;;;;;5.15;2.25;;;0.20;99.90;;;;;;4988935;28;20089;-64
2022/03/13 07:32:34;;;;;;;2.70;1.75;;;0.30;99.90;;;;;;4994187;28;20468;-72
2022/03/13 07:35:01;;;;;;;5.97;2.15;;;0.40;99.90;;;;;;4996135;28;20134;-64
2022/03/13 07:37:28;;;;;;;3.25;1.33;;;0.50;99.90;;;;;;4998767;28;20080;-70
2022/03/13 07:39:55;;;;;;;1.73;1.33;;;0.70;99.90;;;;;;4995811;28;20038;-69
2022/03/13 07:42:22;;;;;;;2.78;1.13;;;0.90;99.90;;;;;;4995578;28;20180;-67
2022/03/13 07:44:49;;;;;;;2.33;1.23;;;1.00;99.90;;;;;;4993978;28;20046;-65
2022/03/13 07:47:17;;;;;;;1.88;0.93;;;1.20;99.90;;;;;;4994218;28;20081;-67
2022/03/13 07:49:44;;;;;;;3.05;1.30;;;1.30;99.90;;;;;;4995712;28;20901;-68
2022/03/13 07:52:11;;;;;;;1.80;1.27;;;1.40;99.90;;;;;;4996681;28;20058;-64
2022/03/13 07:54:38;;;;;;;4.43;1.05;;;1.60;99.90;;;;;;4994506;28;20149;-70
2022/03/13 07:57:05;;;;;;;3.33;1.55;;;1.70;99.90;;;;;;4995689;28;20148;-67
2022/03/13 07:59:32;;;;;;;2.83;0.90;;;1.90;99.90;;;;;;4997923;28;20050;-65
2022/03/13 08:01:59;;;;;;;2.17;1.20;;;2.00;99.90;;;;;;4986323;28;20053;-74
2022/03/13 08:04:26;;;;;;;3.13;0.75;;;2.10;99.90;;;;;;4990756;28;20104;-71
2022/03/13 08:06:53;;;;;;;6.43;1.10;;;2.20;99.50;;;;;;4991829;28;20061;-65
2022/03/13 08:09:20;;;;;;;1.15;0.50;;;2.40;98.30;;;;;;4998173;28;20133;-70
2022/03/13 08:11:48;;;;;;;8.20;0.63;;;2.50;95.40;;;;;;4997648;28;20714;-68
2022/03/13 08:14:15;;;;;;;1.20;0.50;;;2.60;95.40;;;;;;4997818;28;20130;-65
2022/03/13 08:16:42;;;;;;;1.42;0.75;;;2.70;93.90;;;;;;4993395;28;20305;-71
2022/03/13 08:19:10;;;;;;;1.60;0.85;;;2.90;89.10;;;;;;4996144;28;20796;-68
2022/03/13 08:21:41;;;;;;;1.25;1.05;;;3.10;89.30;;;;;;4995743;28;20132;-66
2022/03/13 08:24:08;;;;;;;;;;;3.20;87.40;;;;;;4993531;28;20049;-68
2022/03/13 08:26:38;;;;;;;0.75;0.52;;;3.30;85.40;;;;;;4996154;28;19972;-71
2022/03/13 08:29:08;;;;;;;3.30;0.98;;;3.50;82.00;;;;;;4987516;28;20042;-64
2022/03/13 08:31:35;;;;;;;;;;;3.70;75.20;;;;;;4993632;28;20130;-68
2022/03/13 08:34:07;;;;;;;4.00;0.90;;;3.90;75.10;;;;;;5001369;28;20454;-68
2022/03/13 08:36:36;;;;;;;1.52;0.60;;;3.90;71.70;;;;;;5000501;28;20407;-64
2022/03/13 08:39:03;;;;;;;2.85;0.80;;;4.10;69.30;;;;;;4995893;28;20115;-69
2022/03/13 08:41:30;;;;;;;2.25;0.73;;;4.20;69.10;;;;;;4999508;28;20193;-64
2022/03/13 08:43:57;;;;;;;3.85;0.57;;;4.30;71.50;;;;;;5001920;28;20084;-69
2022/03/13 08:46:24;;;;;;;1.42;0.90;;;4.40;65.60;;;;;;5001739;28;20141;-67
2022/03/13 08:48:51;;;;;;;0.95;0.50;;;4.50;68.20;;;;;;5000041;28;20068;-68
2022/03/13 08:51:21;;;;;;;1.33;0.50;;;4.40;72.30;;;;;;4994506;28;20096;-64
2022/03/13 08:53:48;;;;;;;1.58;0.88;;;4.60;67.00;;;;;;5000034;28;20840;-66
2022/03/13 08:56:15;;;;;;;2.72;1.17;;;4.60;68.70;;;;;;5001744;28;20140;-64
2022/03/13 08:58:42;;;;;;;1.40;1.30;;;4.70;67.20;;;;;;5001549;28;20146;-68
2022/03/13 09:01:10;;;;;;;1.58;0.80;;;4.70;69.80;;;;;;5003912;28;20053;-69
2022/03/13 09:03:37;;;;;;;1.40;0.73;;;4.80;72.10;;;;;;5005030;28;20499;-67
2022/03/13 09:06:04;;;;;;;1.17;0.80;;;5.00;65.80;;;;;;5004831;28;20089;-67
2022/03/13 09:08:31;;;;;;;0.80;0.68;;;5.10;68.80;;;;;;5004359;28;20203;-68
2022/03/13 09:10:58;;;;;;;4.30;0.70;;;5.10;67.90;;;;;;5001064;28;20077;-66
2022/03/13 09:13:25;;;;;;;7.30;0.80;;;5.30;66.20;;;;;;5001247;28;20077;-68
2022/03/13 09:15:52;;;;;;;1.10;0.88;;;5.40;62.80;;;;;;5002837;28;20069;-64
2022/03/13 09:18:19;;;;;;;0.80;0.80;;;5.50;62.10;;;;;;5004318;28;20072;-66
2022/03/13 09:20:45;;;;;;;1.08;0.52;;;5.50;62.30;;;;;;4999290;28;20071;-68
2022/03/13 09:23:12;;;;;;;1.25;0.40;;;5.70;59.30;;;;;;5003769;28;20131;-65
2022/03/13 09:25:40;;;;;;;0.80;0.80;;;5.80;58.40;;;;;;5003491;28;20455;-67
2022/03/13 09:28:08;;;;;;;0.73;0.52;;;5.80;55.70;;;;;;5004814;28;20073;-67
2022/03/13 09:30:35;;;;;;;0.77;0.68;;;6.00;59.80;;;;;;5003356;28;20120;-64
2022/03/13 09:33:03;;;;;;;1.73;0.80;;;6.10;53.00;;;;;;5000403;28;20663;-65
2022/03/13 09:35:30;;;;;;;2.08;1.13;;;6.30;57.10;;;;;;5005586;28;20523;-66
2022/03/13 09:37:56;;;;;;;6.95;1.38;;;6.40;53.40;;;;;;5006224;28;20808;-70
2022/03/13 09:40:26;;;;;;;2.38;1.52;;;6.50;57.00;;;;;;5004740;28;20141;-64
2022/03/13 09:42:54;;;;;;;1.10;0.80;;;6.60;55.50;;;;;;5001968;28;20057;-73
2022/03/13 09:45:21;;;;;;;1.42;0.90;;;6.60;57.80;;;;;;5000155;28;20468;-64
2022/03/13 09:47:49;;;;;;;3.45;0.65;;;6.70;54.00;;;;;;4995825;28;20456;-65
2022/03/13 09:50:17;;;;;;;1.33;0.80;;;6.80;52.90;;;;;;4996195;28;20872;-73
2022/03/13 09:52:44;;;;;;;0.98;0.88;;;6.90;54.50;;;;;;5002464;28;20046;-69
2022/03/13 09:55:13;;;;;;;1.90;1.02;;;6.90;54.10;;;;;;5004117;28;20152;-66
2022/03/13 09:57:43;;;;;;;7.18;5.85;;;7.00;51.10;;;;;;5007348;28;20533;-69
2022/03/13 10:00:13;;;;;;;9.55;6.78;;;6.80;79.70;;;;;;4992448;28;20159;-65
2022/03/13 10:02:39;;;;;;;15.73;6.13;;;6.40;85.70;;;;;;4991919;28;20140;-72
2022/03/13 10:05:20;;;;;;;8.10;6.40;;;6.00;86.80;;;;;;5000100;28;20370;-65
2022/03/13 10:07:59;;;;;;;12.95;6.30;;;5.80;89.10;;;;;;5002627;28;20072;-63
2022/03/13 10:10:41;;;;;;;11.82;7.30;;;5.80;91.80;;;;;;4997835;28;20057;-66
2022/03/13 10:13:09;;;;;;;13.63;7.25;;;5.50;92.90;;;;;;4999026;28;20112;-70
2022/03/13 10:15:47;;;;;;;10.10;6.95;;;5.50;94.90;;;;;;5001790;28;20702;-68
2022/03/13 10:18:17;;;;;;;12.25;7.85;;;5.50;94.00;;;;;;4999134;28;20058;-67
2022/03/13 10:20:48;;;;;;;10.18;7.38;;;5.50;95.50;;;;;;4996675;28;20081;-72
2022/03/13 10:23:16;;;;;;;13.10;8.05;;;5.60;96.50;;;;;;5003644;28;20077;-64
2022/03/13 10:25:44;;;;;;;12.98;7.43;;;5.70;99.60;;;;;;5002359;28;20100;-69
2022/03/13 10:28:14;;;;;;;10.57;7.03;;;5.60;99.90;;;;;;4999775;28;21057;-67
2022/03/13 10:30:42;;;;;;;13.40;7.43;;;5.70;99.90;;;;;;4999480;28;20066;-66
2022/03/13 10:33:09;;;;;;;17.00;8.20;;;5.60;99.90;;;;;;5002943;28;20042;-65
2022/03/13 10:35:37;;;;;;;11.23;6.05;;;5.70;99.90;;;;;;5002375;28;20483;-63
2022/03/13 10:38:14;;;;;;;11.93;7.38;;;5.50;99.90;;;;;;5004083;28;20136;-68
2022/03/13 10:40:56;;;;;;;10.98;7.00;;;5.60;99.90;;;;;;4999098;28;20042;-68
2022/03/13 10:43:26;;;;;;;21.48;8.90;;;5.60;99.90;;;;;;5002807;28;20046;-66
2022/03/13 10:45:54;;;;;;;12.73;7.68;;;5.50;99.90;;;;;;4997665;28;20109;-71
2022/03/13 10:48:32;;;;;;;14.35;9.00;;;5.60;99.90;;;;;;5002525;28;20038;-63
2022/03/13 10:51:01;;;;;;;11.77;8.30;;;5.70;99.90;;;;;;4999796;28;20147;-63
2022/03/13 10:53:28;;;;;;;11.85;9.60;;;5.70;99.90;;;;;;4992419;28;20469;-68
2022/03/13 10:56:08;;;;;;;12.85;8.07;;;5.80;99.90;;;;;;5003182;28;20069;-66
2022/03/13 10:58:38;;;;;;;12.77;10.53;;;6.00;99.90;;;;;;5008110;28;20496;-68
2022/03/13 11:01:12;;;;;;;13.68;9.50;;;6.10;99.90;;;;;;4999918;28;20073;-68
2022/03/13 11:03:50;;;;;;;22.05;10.48;;;6.10;99.90;;;;;;5003793;28;20088;-69
2022/03/13 11:06:18;;;;;;;14.32;9.77;;;6.10;99.90;;;;;;5004653;28;20691;-66
2022/03/13 11:08:46;;;;;;;14.05;10.00;;;6.00;99.90;;;;;;4988357;28;20156;-68
2022/03/13 11:11:15;;;;;;;14.85;9.48;;;5.80;99.90;;;;;;4993252;28;20050;-71
2022/03/13 11:13:46;;;;;;;13.90;9.15;;;5.80;99.90;;;;;;5005168;28;20114;-71
2022/03/13 11:16:20;;;;;;;13.68;10.43;;;5.80;99.90;;;;;;5004185;28;20062;-65
2022/03/13 11:18:51;;;;;;;14.40;8.60;;;5.90;99.90;;;;;;4989313;28;20490;-65
2022/03/13 11:21:19;;;;;;;20.63;10.02;;;6.00;99.90;;;;;;5001190;28;20054;-65
2022/03/13 11:23:47;;;;;;;14.30;9.48;;;6.00;99.90;;;;;;4984467;28;20100;-66
2022/03/13 11:26:16;;;;;;;13.15;10.00;;;6.00;99.90;;;;;;5002931;28;20088;-70
2022/03/13 11:28:47;;;;;;;23.67;10.77;;;6.10;99.90;;;;;;4999948;28;20049;-69
2022/03/13 11:31:34;;;;;;;15.13;9.57;;;6.20;99.90;;;;;;5001933;28;20054;-65
2022/03/13 11:34:14;;;;;;;11.48;9.82;;;6.40;99.90;;;;;;4995330;28;20417;-69
2022/03/13 11:36:47;;;;;;;16.73;10.57;;;6.40;99.90;;;;;;4994675;28;20077;-69
2022/03/13 11:39:28;;;;;;;12.20;8.18;;;6.40;99.90;;;;;;5002945;28;20057;-65
2022/03/13 11:41:55;;;;;;;21.23;11.52;;;6.40;99.90;;;;;;4997977;28;20127;-65
2022/03/13 11:44:22;;;;;;;18.08;10.35;;;6.50;99.90;;;;;;5002698;28;20147;-64
2022/03/13 11:46:52;;;;;;;18.90;11.60;;;6.50;99.90;;;;;;4994943;28;20053;-63
2022/03/13 11:49:39;;;;;;;18.65;12.55;;;6.40;99.90;;;;;;5000961;28;20092;-68
2022/03/13 11:52:12;;;;;;;16.15;10.73;;;6.40;99.90;;;;;;5001211;28;20073;-70
2022/03/13 11:55:02;;;;;;;16.73;12.00;;;6.30;99.90;;;;;;5002624;28;20085;-69
2022/03/13 11:57:42;;;;;;;;;;;6.40;99.90;;;;;;4991156;28;20688;-73
2022/03/13 12:00:12;;;;;;;17.15;11.82;;;6.40;99.90;;;;;;5002757;28;19929;-67
2022/03/13 12:02:49;;;;;;;16.95;10.82;;;6.40;99.90;;;;;;5000766;28;20046;-70
2022/03/13 12:05:31;;;;;;;15.27;10.40;;;6.40;99.90;;;;;;5002772;28;20132;-65
2022/03/13 12:08:08;;;;;;;19.90;11.10;;;6.30;99.90;;;;;;4992840;28;20099;-70
2022/03/13 12:10:43;;;;;;;17.27;11.35;;;6.50;99.90;;;;;;5004838;28;20107;-69
2022/03/13 12:13:18;;;;;;;13.80;10.35;;;6.60;99.90;;;;;;5007738;28;20092;-69
2022/03/13 12:15:47;;;;;;;20.00;10.90;;;6.90;99.90;;;;;;5005754;28;20069;-70
2022/03/13 12:18:32;;;;;;;16.58;10.57;;;7.10;99.90;;;;;;5008194;28;20085;-64
2022/03/13 12:21:10;;;;;;;16.45;12.27;;;7.20;99.90;;;;;;5005619;28;20140;-66
2022/03/13 12:23:39;;;;;;;16.05;10.80;;;7.30;99.90;;;;;;5007322;28;20065;-67
2022/03/13 12:26:27;;;;;;;21.20;11.82;;;7.10;99.90;;;;;;5006888;28;20578;-63
2022/03/13 12:28:56;;;;;;;16.33;11.90;;;7.00;99.90;;;;;;5005067;28;20108;-64
2022/03/13 12:31:24;;;;;;;23.15;11.55;;;6.90;99.90;;;;;;5005140;28;20659;-64
2022/03/13 12:33:56;;;;;;;24.30;13.48;;;6.80;99.90;;;;;;5000426;28;20772;-68
2022/03/13 12:36:37;;;;;;;14.02;12.27;;;6.90;99.90;;;;;;5007499;28;20450;-73
2022/03/13 12:39:11;;;;;;;13.48;11.02;;;6.50;99.90;;;;;;4997463;28;20515;-65
2022/03/13 12:41:43;;;;;;;19.83;11.90;;;6.40;99.90;;;;;;5001938;28;20134;-69
2022/03/13 12:44:15;;;;;;;20.48;11.75;;;6.50;99.90;;;;;;5009033;28;20069;-65
2022/03/13 12:46:42;;;;;;;17.92;12.63;;;6.50;99.90;;;;;;5005902;28;20100;-66
2022/03/13 12:49:15;;;;;;;19.55;12.32;;;6.50;99.90;;;;;;5008611;28;20720;-65